Atascosa, Texas
Current Conditions -  °F | °C
As of 6:55 PM on Friday 24 Oct 2014 (Local Time) from KCVB Reporting Station
Overcast Overcast  
Wind Chill: 83°   Ceiling: 7000
Heat Index: 83°   Visibility: 10mi
Dew Point: 53°   Wind: 6mph
Humidity: 35%   Direction: 140°SE
Pressure: 30.09"   Gusts: NA
Location:  29.28°N, 98.74°W
Report Text: KCVB 242355Z AUTO 14005KT 10SM OVC070 29/12 A3009 RMK AO2 T02860117 10318 20286
Loading
Personal Weather Stations






























Interactive Weather Map New forecast layout! Learn more

10-Day Weather Forecast

Advertisements
Track Severe Weather on mobile